CMA CGM Volga — 5BJR2 — position and weather

sailwx.info

Track history (hours):
 
Tides and Currents Weather Stations Pressure Air Temp Water Temp Dewpoint Dewpoint Depression Visibility Wind Speed Wind Dir Waves Ship Positions

CMA CGM Volga

Last reported at 2016-May-29 12:32 UTC. Time now 2016-May-29 19:15 UTC.
Position N 59°38' E 023°29'.

Length 184 m; draft 9.1 m.

Type: Ship (hazmat cat A). MMSI: 212456000.

Date/timePositionNaut miles runAvg speedWind from/ knotsBaromVisibWave heightAir tempDewpointWater temp
2016-May-29 12:32N 59°38' E 023°29'1514.0
2016-May-29 11:29N 59°43' E 023°56'7414.0
2016-May-29 06:15N 59°60' E 026°19'1013.8
2016-May-29 05:30N 60°01' E 026°39'3013.2
2016-May-29 03:14N 60°09' E 027°36'2213.0
2016-May-29 01:32N 60°07' E 028°21'1313.5
2016-May-29 00:33N 60°03' E 028°46'2612.8
2016-May-28 22:32N 60°00' E 029°37'1111.2
2016-May-28 21:33N 59°56' E 029°57'8 7.8
2016-May-28 20:33N 59°53' E 030°12'0 0.1
2016-May-28 19:33N 59°53' E 030°12'0 0.0
2016-May-28 18:33N 59°53' E 030°12'0 0.0
2016-May-28 17:33N 59°53' E 030°12'0 0.0
2016-May-28 16:33N 59°53' E 030°12'0 0.0
2016-May-28 15:33N 59°53' E 030°12'0 0.0
2016-May-28 14:30N 59°53' E 030°12'0 0.0
2016-May-28 13:33N 59°53' E 030°12'0 0.0
2016-May-28 12:30N 59°53' E 030°12'0 0.0
2016-May-28 11:33N 59°53' E 030°12'0 0.0
2016-May-28 10:30N 59°53' E 030°12'0 0.0
2016-May-28 09:33N 59°53' E 030°12'0 0.0
2016-May-28 08:33N 59°53' E 030°12'0 0.0
2016-May-28 07:30N 59°53' E 030°12'0 0.0
2016-May-28 06:33N 59°53' E 030°12'0 0.0
2016-May-28 05:33N 59°53' E 030°12'1 1.2
2016-May-28 04:33N 59°53' E 030°10'9 9.1
2016-May-28 03:33N 59°57' E 029°53'27 4.3
2016-May-27 21:21N 60°02' E 029°00'911.4
2016-May-27 20:33N 60°01' E 028°42'7 7.4
2016-May-27 19:33N 59°55' E 028°33'8 7.9
2016-May-27 18:33N 59°48' E 028°25'8 6.5
2016-May-27 17:22N 59°40' E 028°24'0 0.0
2016-May-27 16:19N 59°40' E 028°24'0 0.0
2016-May-27 15:25N 59°40' E 028°24'0 0.0
2016-May-27 14:19N 59°40' E 028°24'0 0.0
2016-May-27 13:25N 59°40' E 028°24'0 0.0
2016-May-27 12:10N 59°40' E 028°24'0 0.0
2016-May-27 11:25N 59°40' E 028°24'0 0.0
2016-May-27 10:28N 59°40' E 028°24'0 0.0
2016-May-27 09:31N 59°40' E 028°24'0 0.0
2016-May-27 08:31N 59°40' E 028°24'0 0.0
2016-May-27 07:31N 59°40' E 028°24'0 0.0
2016-May-27 06:13N 59°40' E 028°24'1 1.9
2016-May-27 05:33N 59°42' E 028°24'1010.2
2016-May-27 04:33N 59°52' E 028°27'9 9.1
2016-May-27 03:33N 59°60' E 028°35'1313.3
2016-May-27 02:33N 60°07' E 028°13'1413.2
2016-May-27 01:28N 60°10' E 027°45'2813.2
2016-May-26 23:22N 59°59' E 026°55'1113.5
2016-May-26 22:33N 59°58' E 026°32'8313.9
2016-May-26 16:33N 59°38' E 023°52'28314.9
2016-May-25 21:33N 55°38' E 019°11'3516.1
2016-May-25 19:25N 55°03' E 019°03'1416.4
2016-May-25 18:33N 54°49' E 019°03'1616.0
2016-May-25 17:34N 54°33' E 019°05'1313.4
2016-May-25 16:33N 54°25' E 018°47'3 2.8
2016-May-25 15:32N 54°23' E 018°43'0 0.0
2016-May-25 14:29N 54°23' E 018°43'0 0.0
2016-May-25 13:32N 54°23' E 018°43'0 0.0
2016-May-25 12:29N 54°23' E 018°43'0 0.0
2016-May-25 11:32N 54°23' E 018°43'0 0.0
2016-May-25 10:29N 54°23' E 018°43'0 0.0
2016-May-25 09:32N 54°23' E 018°43'0 0.0
2016-May-25 08:29N 54°23' E 018°43'0 0.0
2016-May-25 07:32N 54°23' E 018°43'0 0.0
2016-May-25 06:32N 54°23' E 018°43'0 0.0
2016-May-25 05:32N 54°23' E 018°43'0 0.0
2016-May-25 04:32N 54°23' E 018°43'0 0.0
2016-May-25 03:32N 54°23' E 018°43'0 0.0
2016-May-25 02:32N 54°23' E 018°43'0 0.0
2016-May-25 01:32N 54°23' E 018°43'0 0.0
2016-May-25 00:32N 54°23' E 018°43'0 0.0
2016-May-24 23:32N 54°23' E 018°43'0 0.0
2016-May-24 22:29N 54°23' E 018°43'0 0.0
2016-May-24 21:32N 54°23' E 018°43'0 0.0
2016-May-24 20:32N 54°23' E 018°43'0 0.0
2016-May-24 19:29N 54°23' E 018°43'0 0.0
2016-May-24 18:32N 54°23' E 018°43'0 0.0
2016-May-24 17:32N 54°23' E 018°43'0 0.0
2016-May-24 16:32N 54°23' E 018°43'0 0.0
2016-May-24 15:32N 54°23' E 018°43'0 0.0
2016-May-24 14:32N 54°23' E 018°43'0 0.0
2016-May-24 13:32N 54°23' E 018°43'0 0.0
2016-May-24 12:29N 54°23' E 018°43'0 0.0
2016-May-24 11:32N 54°23' E 018°43'0 0.0
2016-May-24 10:32N 54°23' E 018°43'0 0.0
2016-May-24 09:32N 54°23' E 018°43'0 0.0
2016-May-24 08:32N 54°23' E 018°43'0 0.0
2016-May-24 07:26N 54°23' E 018°43'0 0.0
2016-May-24 06:32N 54°23' E 018°43'0 0.0
2016-May-24 05:32N 54°23' E 018°43'2 2.4
2016-May-24 04:33N 54°25' E 018°46'3 2.8
2016-May-24 03:33N 54°26' E 018°50'0 0.0
2016-May-24 02:33N 54°26' E 018°50'0 0.0
2016-May-24 01:33N 54°26' E 018°50'0 0.0
2016-May-24 00:33N 54°26' E 018°50'0 0.0
2016-May-23 23:33N 54°26' E 018°50'0 0.0
2016-May-23 22:33N 54°26' E 018°50'0 0.0
2016-May-23 21:33N 54°26' E 018°50'0 0.0
2016-May-23 20:30N 54°26' E 018°50'0 0.0
2016-May-23 19:33N 54°26' E 018°50'0 0.0
2016-May-23 18:30N 54°26' E 018°50'0 0.0
2016-May-23 17:33N 54°26' E 018°50'0 0.4
2016-May-23 16:33N 54°26' E 018°51'1110.6
2016-May-23 15:33N 54°34' E 019°02'1313.1
2016-May-23 14:33N 54°48' E 019°03'1413.6
2016-May-23 13:33N 55°01' E 019°04'303 5.9
2016-May-21 10:19N 59°36' E 023°00'1418.7
2016-May-21 09:33N 59°39' E 023°27'14 0.7
2016-May-20 12:30N 59°38' E 023°56'1313.3
2016-May-20 11:32N 59°34' E 023°32'31014.7
2016-May-19 14:25N 54°60' E 019°03'1416.4
2016-May-19 13:34N 54°46' E 019°05'1515.5
2016-May-19 12:34N 54°30' E 019°02'  
Track history (hours):
 
Tides and Currents Weather Stations Pressure Air Temp Water Temp Dewpoint Dewpoint Depression Visibility Wind Speed Wind Dir Waves Ship Positions

CMA CGM Volga

Last reported at 2016-May-29 12:32 UTC. Time now 2016-May-29 19:15 UTC.
Position N 59°38' E 023°29'.

Length 184 m; draft 9.1 m.

Type: Ship (hazmat cat A). MMSI: 212456000.

Date/timePositionNaut miles runAvg speedWind from/ knotsBaromVisibWave heightAir tempDewpointWater temp
2016-May-29 12:32N 59°38' E 023°29'1514.0
2016-May-29 11:29N 59°43' E 023°56'7414.0
2016-May-29 06:15N 59°60' E 026°19'1013.8
2016-May-29 05:30N 60°01' E 026°39'3013.2
2016-May-29 03:14N 60°09' E 027°36'2213.0
2016-May-29 01:32N 60°07' E 028°21'1313.5
2016-May-29 00:33N 60°03' E 028°46'2612.8
2016-May-28 22:32N 60°00' E 029°37'1111.2
2016-May-28 21:33N 59°56' E 029°57'8 7.8
2016-May-28 20:33N 59°53' E 030°12'0 0.1
2016-May-28 19:33N 59°53' E 030°12'0 0.0
2016-May-28 18:33N 59°53' E 030°12'0 0.0
2016-May-28 17:33N 59°53' E 030°12'0 0.0
2016-May-28 16:33N 59°53' E 030°12'0 0.0
2016-May-28 15:33N 59°53' E 030°12'0 0.0
2016-May-28 14:30N 59°53' E 030°12'0 0.0
2016-May-28 13:33N 59°53' E 030°12'0 0.0
2016-May-28 12:30N 59°53' E 030°12'0 0.0
2016-May-28 11:33N 59°53' E 030°12'0 0.0
2016-May-28 10:30N 59°53' E 030°12'0 0.0
2016-May-28 09:33N 59°53' E 030°12'0 0.0
2016-May-28 08:33N 59°53' E 030°12'0 0.0
2016-May-28 07:30N 59°53' E 030°12'0 0.0
2016-May-28 06:33N 59°53' E 030°12'0 0.0
2016-May-28 05:33N 59°53' E 030°12'1 1.2
2016-May-28 04:33N 59°53' E 030°10'9 9.1
2016-May-28 03:33N 59°57' E 029°53'27 4.3
2016-May-27 21:21N 60°02' E 029°00'911.4
2016-May-27 20:33N 60°01' E 028°42'7 7.4
2016-May-27 19:33N 59°55' E 028°33'8 7.9
2016-May-27 18:33N 59°48' E 028°25'8 6.5
2016-May-27 17:22N 59°40' E 028°24'0 0.0
2016-May-27 16:19N 59°40' E 028°24'0 0.0
2016-May-27 15:25N 59°40' E 028°24'0 0.0
2016-May-27 14:19N 59°40' E 028°24'0 0.0
2016-May-27 13:25N 59°40' E 028°24'0 0.0
2016-May-27 12:10N 59°40' E 028°24'0 0.0
2016-May-27 11:25N 59°40' E 028°24'0 0.0
2016-May-27 10:28N 59°40' E 028°24'0 0.0
2016-May-27 09:31N 59°40' E 028°24'0 0.0
2016-May-27 08:31N 59°40' E 028°24'0 0.0
2016-May-27 07:31N 59°40' E 028°24'0 0.0
2016-May-27 06:13N 59°40' E 028°24'1 1.9
2016-May-27 05:33N 59°42' E 028°24'1010.2
2016-May-27 04:33N 59°52' E 028°27'9 9.1
2016-May-27 03:33N 59°60' E 028°35'1313.3
2016-May-27 02:33N 60°07' E 028°13'1413.2
2016-May-27 01:28N 60°10' E 027°45'2813.2
2016-May-26 23:22N 59°59' E 026°55'1113.5
2016-May-26 22:33N 59°58' E 026°32'8313.9
2016-May-26 16:33N 59°38' E 023°52'28314.9
2016-May-25 21:33N 55°38' E 019°11'3516.1
2016-May-25 19:25N 55°03' E 019°03'1416.4
2016-May-25 18:33N 54°49' E 019°03'1616.0
2016-May-25 17:34N 54°33' E 019°05'1313.4
2016-May-25 16:33N 54°25' E 018°47'3 2.8
2016-May-25 15:32N 54°23' E 018°43'0 0.0
2016-May-25 14:29N 54°23' E 018°43'0 0.0
2016-May-25 13:32N 54°23' E 018°43'0 0.0
2016-May-25 12:29N 54°23' E 018°43'0 0.0
2016-May-25 11:32N 54°23' E 018°43'0 0.0
2016-May-25 10:29N 54°23' E 018°43'0 0.0
2016-May-25 09:32N 54°23' E 018°43'0 0.0
2016-May-25 08:29N 54°23' E 018°43'0 0.0
2016-May-25 07:32N 54°23' E 018°43'0 0.0
2016-May-25 06:32N 54°23' E 018°43'0 0.0
2016-May-25 05:32N 54°23' E 018°43'0 0.0
2016-May-25 04:32N 54°23' E 018°43'0 0.0
2016-May-25 03:32N 54°23' E 018°43'0 0.0
2016-May-25 02:32N 54°23' E 018°43'0 0.0
2016-May-25 01:32N 54°23' E 018°43'0 0.0
2016-May-25 00:32N 54°23' E 018°43'0 0.0
2016-May-24 23:32N 54°23' E 018°43'0 0.0
2016-May-24 22:29N 54°23' E 018°43'0 0.0
2016-May-24 21:32N 54°23' E 018°43'0 0.0
2016-May-24 20:32N 54°23' E 018°43'0 0.0
2016-May-24 19:29N 54°23' E 018°43'0 0.0
2016-May-24 18:32N 54°23' E 018°43'0 0.0
2016-May-24 17:32N 54°23' E 018°43'0 0.0
2016-May-24 16:32N 54°23' E 018°43'0 0.0
2016-May-24 15:32N 54°23' E 018°43'0 0.0
2016-May-24 14:32N 54°23' E 018°43'0 0.0
2016-May-24 13:32N 54°23' E 018°43'0 0.0
2016-May-24 12:29N 54°23' E 018°43'0 0.0
2016-May-24 11:32N 54°23' E 018°43'0 0.0
2016-May-24 10:32N 54°23' E 018°43'0 0.0
2016-May-24 09:32N 54°23' E 018°43'0 0.0
2016-May-24 08:32N 54°23' E 018°43'0 0.0
2016-May-24 07:26N 54°23' E 018°43'0 0.0
2016-May-24 06:32N 54°23' E 018°43'0 0.0
2016-May-24 05:32N 54°23' E 018°43'2 2.4
2016-May-24 04:33N 54°25' E 018°46'3 2.8
2016-May-24 03:33N 54°26' E 018°50'0 0.0
2016-May-24 02:33N 54°26' E 018°50'0 0.0
2016-May-24 01:33N 54°26' E 018°50'0 0.0
2016-May-24 00:33N 54°26' E 018°50'0 0.0
2016-May-23 23:33N 54°26' E 018°50'0 0.0
2016-May-23 22:33N 54°26' E 018°50'0 0.0
2016-May-23 21:33N 54°26' E 018°50'0 0.0
2016-May-23 20:30N 54°26' E 018°50'0 0.0
2016-May-23 19:33N 54°26' E 018°50'0 0.0
2016-May-23 18:30N 54°26' E 018°50'0 0.0
2016-May-23 17:33N 54°26' E 018°50'0 0.4
2016-May-23 16:33N 54°26' E 018°51'1110.6
2016-May-23 15:33N 54°34' E 019°02'1313.1
2016-May-23 14:33N 54°48' E 019°03'1413.6
2016-May-23 13:33N 55°01' E 019°04'303 5.9
2016-May-21 10:19N 59°36' E 023°00'1418.7
2016-May-21 09:33N 59°39' E 023°27'14 0.7
2016-May-20 12:30N 59°38' E 023°56'1313.3
2016-May-20 11:32N 59°34' E 023°32'31014.7
2016-May-19 14:25N 54°60' E 019°03'1416.4
2016-May-19 13:34N 54°46' E 019°05'1515.5
2016-May-19 12:34N 54°30' E 019°02'  

Dump ship's entire track history